Date,TemperatureHighF,TemperatureAvgF,TemperatureLowF,DewpointHighF,DewpointAvgF,DewpointLowF,HumidityHigh,HumidityAvg,HumidityLow,PressureMaxIn,PressureMinIn,WindSpeedMaxMPH,WindSpeedAvgMPH,GustSpeedMaxMPH,PrecipitationSumIn
2013-2-1,53.8,46.9,40.8,46.0,42.9,37.8,93,86,73,29.92,29.81,14,1,14,0.00
2013-2-2,52.9,40.4,30.9,45.3,36.6,28.5,94,87,73,29.88,29.81,14,1,14,0.00
2013-2-3,47.8,41.2,34.0,45.4,39.3,31.8,95,93,89,29.90,29.79,14,1,14,0.00
2013-2-4,53.8,45.3,40.8,47.6,42.3,38.7,95,90,77,29.80,29.55,14,1,14,0.00
2013-2-5,50.4,45.7,42.8,45.9,42.4,40.3,92,88,82,29.61,29.48,10,5,10,0.00
2013-2-6,52.5,46.1,42.1,45.2,41.8,38.8,92,85,76,29.65,29.40,12,5,12,0.00
2013-2-7,49.8,41.5,36.0,42.6,37.8,33.9,92,87,73,29.70,29.51,5,2,5,0.00
2013-2-8,46.8,40.0,31.3,41.9,36.1,29.5,94,86,78,29.85,29.72,14,1,14,0.00
2013-2-9,46.8,41.0,35.4,42.6,38.5,33.3,94,91,85,29.87,29.82,14,1,14,0.00
2013-2-10,45.9,42.9,40.1,41.9,39.6,37.7,95,88,78,29.91,29.86,14,1,14,0.00
2013-2-11,48.6,44.4,40.8,41.8,39.5,36.7,88,83,74,29.95,29.88,28,3,28,0.00
2013-2-12,55.6,49.0,44.2,48.4,44.7,41.1,91,85,75,30.03,29.95,21,6,21,0.00
2013-2-13,54.3,49.0,45.7,48.1,44.0,40.3,91,83,72,30.08,29.99,20,5,20,0.00
2013-2-14,56.7,47.9,40.1,47.5,42.6,37.7,91,82,70,30.12,30.05,14,1,14,0.00
2013-2-15,62.2,48.5,40.1,49.3,42.8,37.1,92,82,62,30.05,29.75,14,2,14,0.00
2013-2-16,54.1,45.3,37.9,47.5,40.7,33.8,94,84,65,29.85,29.77,25,5,25,0.00
2013-2-17,49.1,40.9,34.3,41.8,35.6,31.2,92,82,64,29.86,29.64,14,1,14,0.00
2013-2-18,48.7,41.0,34.3,40.1,36.3,31.6,92,84,70,29.65,29.28,16,3,16,0.00
2013-2-19,53.4,42.8,35.8,41.5,37.5,33.1,93,82,60,29.56,29.23,20,3,20,0.00
2013-2-20,49.8,40.6,34.0,43.6,36.9,31.6,93,87,74,29.66,29.55,21,3,21,0.00
2013-2-21,46.8,42.2,37.6,41.7,38.5,34.3,90,87,82,29.76,29.65,71,6,71,0.00
2013-2-22,48.6,43.7,39.4,45.2,40.4,35.2,91,88,84,29.74,29.46,71,10,71,0.00
2013-2-23,49.8,41.3,36.3,41.8,36.1,31.9,91,82,64,30.01,29.63,22,5,22,0.00
2013-2-24,55.8,44.4,36.7,41.8,36.6,33.1,89,75,53,30.01,29.62,18,4,18,0.00
2013-2-25,51.4,43.2,36.3,41.5,37.5,32.8,89,81,61,29.96,29.58,71,8,71,0.00
2013-2-26,52.3,41.1,31.8,42.1,35.7,29.3,93,82,63,29.96,29.80,21,2,21,0.00
2013-2-27,52.3,47.0,41.2,44.3,41.1,36.6,90,80,71,29.87,29.78,21,3,21,0.00
2013-2-28,59.2,52.8,46.9,53.1,48.8,43.9,91,86,79,30.00,29.74,71,8,71,0.00